Decoded Metar for KMHL ( in ) (IATA:) | Meteo·Mobile Aviation Weather
aviador You're here:

KMHL Decoded Metar

in
Report Time2019-03-20 00:35:00
UTC Time2019-03-20 00:46:31
Flight Rules vfr VFR
Wind120° at 09 kt
W.Decomp.*RWY 09: 7.8 kt HW 4.5 kt RCW
RWY 18: 4.5 kt HW 7.8 kt LCW
W.Rank120° ranks 5
Current wind is above 120° avg. (6.5)
Visibility9999 m
Phenomena:N/A
Clouds:N/A
Expected CloudBase > 3,600 ft AGL from Temp-Dew spread
CeilingNone
Temp10°C
Dew Point01°C (54% RH)
AAT4.9°C
QNH1021 hPa
Raw Report
KMHL 200035Z AUTO 12009KT 10SM CLR 10/01 A3015 RMK AO2=

Extra information for KMHL:More info

Social comments